createdAt,value
2023-10-18T00:00:55.016Z,10.05
2023-10-18T00:02:58.212Z,10.88
2023-10-18T00:05:06.768Z,10.93
2023-10-18T00:07:12.882Z,11.52
2023-10-18T00:09:33.206Z,11.15
2023-10-18T00:11:36.415Z,11.20
2023-10-18T00:13:39.812Z,11.23
2023-10-18T00:15:41.615Z,11.13
2023-10-18T00:17:45.321Z,10.52
2023-10-18T00:19:48.337Z,9.00
2023-10-18T00:21:52.290Z,9.98
2023-10-18T00:23:55.624Z,9.40
2023-10-18T00:26:01.248Z,10.07
2023-10-18T00:28:05.032Z,9.90
2023-10-18T00:30:09.359Z,10.82
2023-10-18T00:32:12.546Z,9.45
2023-10-18T00:34:15.461Z,9.75
2023-10-18T00:36:18.729Z,10.25
2023-10-18T00:38:25.530Z,11.43
2023-10-18T00:42:45.795Z,8.90
2023-10-18T00:44:53.215Z,10.48
2023-10-18T00:46:56.941Z,10.50
2023-10-18T00:49:00.792Z,11.07
2023-10-18T00:51:04.797Z,10.52
2023-10-18T00:53:07.331Z,11.30
2023-10-18T00:55:11.851Z,11.35
2023-10-18T00:57:16.407Z,12.90
2023-10-18T00:59:22.583Z,12.07
2023-10-18T01:01:24.544Z,11.45
2023-10-18T01:03:33.842Z,12.13
2023-10-18T01:05:37.056Z,12.43
2023-10-18T01:07:40.257Z,11.82
2023-10-18T01:09:48.850Z,11.43
2023-10-18T01:11:53.337Z,12.02
2023-10-18T01:13:57.368Z,12.82
2023-10-18T01:16:00.616Z,12.82
2023-10-18T01:18:03.448Z,12.00
2023-10-18T01:20:26.487Z,13.23
2023-10-18T01:22:31.928Z,13.07
2023-10-18T01:24:36.866Z,11.73
2023-10-18T01:26:40.339Z,11.88
2023-10-18T01:28:43.392Z,12.68
2023-10-18T01:30:46.758Z,12.23
2023-10-18T01:32:50.137Z,11.95
2023-10-18T01:34:52.932Z,11.48
2023-10-18T01:36:57.849Z,12.25
2023-10-18T01:39:01.350Z,12.27
2023-10-18T01:41:10.565Z,11.70
2023-10-18T01:43:13.415Z,11.52
2023-10-18T01:45:23.092Z,11.63
2023-10-18T01:47:25.822Z,12.15
2023-10-18T01:49:29.177Z,12.88
2023-10-18T01:51:32.043Z,12.23
2023-10-18T01:53:34.759Z,12.75
2023-10-18T01:55:38.848Z,12.10
2023-10-18T01:57:45.267Z,11.10
2023-10-18T01:59:49.261Z,12.63
2023-10-18T02:01:53.010Z,12.65
2023-10-18T02:03:58.972Z,12.18
2023-10-18T02:06:00.850Z,12.38
2023-10-18T02:08:03.634Z,12.07
2023-10-18T02:10:07.744Z,11.90
2023-10-18T02:12:10.788Z,11.88
2023-10-18T02:14:15.062Z,12.20
2023-10-18T02:16:20.537Z,13.25
2023-10-18T02:18:24.006Z,11.38
2023-10-18T02:20:29.467Z,12.48
2023-10-18T02:22:32.160Z,11.60
2023-10-18T02:24:34.864Z,11.85
2023-10-18T02:26:40.843Z,13.32
2023-10-18T02:28:44.342Z,12.10
2023-10-18T02:30:48.371Z,11.85
2023-10-18T02:32:51.200Z,11.55
2023-10-18T02:34:54.013Z,11.95
2023-10-18T02:36:59.385Z,11.02
2023-10-18T02:39:01.499Z,12.07
2023-10-18T02:41:16.289Z,10.82
2023-10-18T02:43:19.016Z,12.35
2023-10-18T02:45:23.460Z,11.05
2023-10-18T02:47:27.689Z,12.73
2023-10-18T02:49:30.557Z,12.65
2023-10-18T02:51:33.438Z,11.93
2023-10-18T02:53:41.530Z,12.20
2023-10-18T02:55:49.097Z,10.80
2023-10-18T02:57:53.775Z,11.98
2023-10-18T02:59:57.925Z,12.15
2023-10-18T03:02:02.660Z,10.98
2023-10-18T03:04:09.233Z,11.50
2023-10-18T03:06:15.366Z,10.82
2023-10-18T03:08:22.073Z,11.40
2023-10-18T03:10:33.714Z,10.38
2023-10-18T03:12:37.451Z,13.02
2023-10-18T03:14:42.347Z,12.20
2023-10-18T03:16:48.318Z,12.57
2023-10-18T03:18:51.122Z,13.57
2023-10-18T03:20:57.132Z,12.88
2023-10-18T03:23:04.193Z,12.02
2023-10-18T03:25:11.843Z,12.20
2023-10-18T03:27:14.698Z,12.32
2023-10-18T03:29:17.714Z,11.80
2023-10-18T03:31:28.384Z,12.32
2023-10-18T03:33:33.447Z,12.50
2023-10-18T03:35:40.418Z,13.27
2023-10-18T03:39:54.245Z,11.80
2023-10-18T03:44:07.722Z,11.15
2023-10-18T03:46:15.068Z,10.75
2023-10-18T03:48:25.309Z,12.13
2023-10-18T03:50:36.897Z,11.05
2023-10-18T03:52:39.810Z,11.48
2023-10-18T03:54:47.064Z,11.18
2023-10-18T03:56:53.074Z,12.07
2023-10-18T03:59:04.883Z,10.93
2023-10-18T04:01:11.888Z,11.95
2023-10-18T04:03:18.171Z,11.80
2023-10-18T04:05:32.017Z,11.82
2023-10-18T04:07:36.339Z,12.05
2023-10-18T04:09:38.466Z,13.25
2023-10-18T04:11:42.747Z,12.52
2023-10-18T04:13:45.508Z,12.25
2023-10-18T04:15:51.111Z,11.80
2023-10-18T04:18:04.335Z,11.50
2023-10-18T04:20:23.495Z,11.27
2023-10-18T04:22:28.972Z,11.50
2023-10-18T04:24:33.235Z,13.10
2023-10-18T04:26:36.083Z,13.75
2023-10-18T04:28:40.445Z,12.23
2023-10-18T04:30:43.696Z,12.80
2023-10-18T04:32:46.885Z,11.82
2023-10-18T04:34:50.081Z,12.38
2023-10-18T04:36:55.884Z,12.18
2023-10-18T04:38:58.742Z,12.52
2023-10-18T04:41:08.726Z,12.75
2023-10-18T04:43:11.923Z,12.55
2023-10-18T04:45:18.368Z,13.10
2023-10-18T04:47:25.531Z,12.63
2023-10-18T04:49:37.850Z,12.65
2023-10-18T04:51:46.493Z,11.93
2023-10-18T04:53:50.569Z,13.20
2023-10-18T04:55:54.228Z,12.82
2023-10-18T04:57:56.110Z,11.40
2023-10-18T05:00:11.910Z,13.35
2023-10-18T05:02:18.663Z,11.52
2023-10-18T05:06:30.055Z,11.90
2023-10-18T05:08:37.569Z,12.18
2023-10-18T05:10:46.197Z,12.18
2023-10-18T05:12:49.706Z,11.70
2023-10-18T05:15:08.061Z,11.93
2023-10-18T05:17:18.584Z,12.25
2023-10-18T05:19:29.816Z,12.38
2023-10-18T05:21:33.085Z,12.85
2023-10-18T05:23:37.260Z,12.32
2023-10-18T05:25:46.766Z,12.05
2023-10-18T05:28:00.842Z,12.23
2023-10-18T05:30:15.826Z,12.98
2023-10-18T05:32:50.289Z,10.88
2023-10-18T05:35:12.412Z,12.88
2023-10-18T05:37:16.054Z,10.75
2023-10-18T05:39:29.251Z,12.07
2023-10-18T05:41:37.260Z,12.10
2023-10-18T05:43:43.886Z,12.70
2023-10-18T05:45:45.834Z,12.15
2023-10-18T05:47:55.390Z,13.20
2023-10-18T05:50:00.890Z,13.77
2023-10-18T05:52:17.648Z,12.80
2023-10-18T05:54:25.685Z,13.75
2023-10-18T05:56:32.700Z,12.13
2023-10-18T05:58:35.568Z,12.10
2023-10-18T06:00:38.321Z,12.68
2023-10-18T06:02:41.122Z,13.18
2023-10-18T06:04:44.766Z,13.60
2023-10-18T06:06:48.974Z,13.65
2023-10-18T06:08:51.728Z,12.65
2023-10-18T06:11:07.902Z,13.23
2023-10-18T06:13:12.217Z,11.70
2023-10-18T06:15:17.615Z,12.35
2023-10-18T06:17:23.793Z,12.55
2023-10-18T06:19:30.608Z,12.52
2023-10-18T06:21:39.195Z,11.70
2023-10-18T06:23:43.367Z,12.23
2023-10-18T06:25:46.701Z,12.82
2023-10-18T06:27:51.577Z,13.20
2023-10-18T06:29:55.218Z,12.55
2023-10-18T06:31:58.171Z,12.13
2023-10-18T06:34:03.953Z,12.73
2023-10-18T06:36:13.209Z,12.93
2023-10-18T06:38:18.983Z,13.10
2023-10-18T06:40:22.969Z,11.88
2023-10-18T06:42:28.040Z,12.38
2023-10-18T06:44:31.769Z,14.68
2023-10-18T06:46:35.403Z,14.65
2023-10-18T06:48:39.188Z,11.98
2023-10-18T06:50:42.406Z,11.15
2023-10-18T06:52:53.939Z,13.10
2023-10-18T06:54:57.229Z,12.15
2023-10-18T06:57:10.845Z,12.50
2023-10-18T06:59:14.556Z,14.02
2023-10-18T07:01:22.074Z,13.02
2023-10-18T07:03:28.748Z,11.70
2023-10-18T07:05:32.567Z,11.55
2023-10-18T07:07:35.260Z,11.68
2023-10-18T07:09:38.156Z,13.20
2023-10-18T07:11:52.007Z,13.07
2023-10-18T07:13:57.065Z,11.68
2023-10-18T07:16:03.030Z,11.98
2023-10-18T07:18:15.170Z,13.05
2023-10-18T07:20:18.002Z,12.15
2023-10-18T07:22:22.304Z,12.02
2023-10-18T07:24:26.232Z,10.32
2023-10-18T07:26:30.333Z,11.65
2023-10-18T07:28:36.583Z,12.73
2023-10-18T07:30:45.886Z,11.65
2023-10-18T07:32:59.128Z,12.50
2023-10-18T07:35:02.116Z,11.90
2023-10-18T07:37:18.666Z,11.55
2023-10-18T07:39:25.410Z,11.38
2023-10-18T07:41:28.594Z,10.77
2023-10-18T07:43:33.567Z,11.35
2023-10-18T07:45:36.738Z,11.73
2023-10-18T07:47:40.827Z,10.10
2023-10-18T07:49:46.446Z,10.80
2023-10-18T07:51:57.014Z,11.35
2023-10-18T07:54:01.060Z,9.95
2023-10-18T07:56:04.742Z,9.60
2023-10-18T07:58:18.950Z,9.43
2023-10-18T08:00:27.736Z,10.20
2023-10-18T08:02:31.799Z,9.30
2023-10-18T08:04:37.854Z,9.20
2023-10-18T08:06:40.756Z,9.05
2023-10-18T08:08:43.433Z,8.65
2023-10-18T08:10:46.385Z,8.85
2023-10-18T08:13:05.523Z,8.85
2023-10-18T08:15:15.213Z,8.07
2023-10-18T08:17:44.213Z,9.40
2023-10-18T08:19:57.216Z,9.63
2023-10-18T08:22:05.944Z,10.07
2023-10-18T08:24:10.201Z,9.60
2023-10-18T08:26:13.789Z,10.05
2023-10-18T08:28:16.652Z,8.82
2023-10-18T08:30:25.777Z,8.48
2023-10-18T08:32:31.320Z,9.45
2023-10-18T08:34:35.691Z,10.27
2023-10-18T08:36:40.104Z,9.60
2023-10-18T08:38:43.302Z,10.30
2023-10-18T08:40:46.715Z,9.82
2023-10-18T08:42:53.526Z,9.32
2023-10-18T08:44:56.685Z,9.23
2023-10-18T08:47:15.867Z,9.25
2023-10-18T08:49:24.151Z,9.27
2023-10-18T08:51:30.167Z,9.23
2023-10-18T08:53:37.393Z,8.75
2023-10-18T08:55:46.557Z,9.02
2023-10-18T08:57:56.816Z,9.48
2023-10-18T09:00:18.520Z,9.80
2023-10-18T09:02:22.922Z,9.07
2023-10-18T09:04:29.855Z,9.48
2023-10-18T09:06:33.043Z,8.90
2023-10-18T09:08:43.483Z,8.50
2023-10-18T09:10:50.988Z,8.50
2023-10-18T09:13:29.993Z,9.30
2023-10-18T09:15:48.727Z,8.35
2023-10-18T09:17:55.680Z,9.00
2023-10-18T09:20:00.000Z,8.57
2023-10-18T09:22:03.729Z,8.82
2023-10-18T09:24:08.561Z,9.05
2023-10-18T09:26:14.362Z,7.72
2023-10-18T09:28:21.931Z,8.10
2023-10-18T09:30:27.075Z,8.63
2023-10-18T09:32:34.468Z,8.38
2023-10-18T09:34:39.648Z,8.20
2023-10-18T09:36:54.377Z,8.00
2023-10-18T09:38:58.666Z,8.80
2023-10-18T09:41:02.847Z,8.35
2023-10-18T09:43:05.866Z,7.93
2023-10-18T09:45:09.725Z,8.32
2023-10-18T09:47:13.173Z,8.05
2023-10-18T09:49:22.668Z,8.65
2023-10-18T09:51:25.840Z,7.88
2023-10-18T09:53:31.879Z,7.93
2023-10-18T09:55:36.525Z,6.93
2023-10-18T09:57:42.569Z,8.63
2023-10-18T09:59:48.660Z,7.35
2023-10-18T10:02:08.807Z,7.50
2023-10-18T10:04:15.146Z,6.82
2023-10-18T10:06:22.214Z,7.63
2023-10-18T10:08:25.761Z,7.10
2023-10-18T10:10:44.651Z,8.15
2023-10-18T10:12:58.316Z,7.60
2023-10-18T10:15:01.057Z,7.70
2023-10-18T10:17:08.859Z,7.38
2023-10-18T10:19:14.224Z,7.57
2023-10-18T10:21:22.340Z,7.15
2023-10-18T10:23:25.441Z,7.50
2023-10-18T10:25:38.728Z,6.43
2023-10-18T10:27:59.418Z,8.25
2023-10-18T10:30:04.775Z,6.43
2023-10-18T10:32:07.642Z,7.07
2023-10-18T10:34:16.361Z,7.20
2023-10-18T10:36:20.627Z,6.07
2023-10-18T10:38:27.856Z,6.80
2023-10-18T10:40:37.672Z,6.15
2023-10-18T10:42:47.896Z,6.57
2023-10-18T10:44:58.220Z,6.32
2023-10-18T10:47:32.122Z,5.60
2023-10-18T10:49:49.928Z,5.50
2023-10-18T10:51:57.820Z,5.15
2023-10-18T10:54:02.348Z,5.68
2023-10-18T10:56:18.196Z,5.53
2023-10-18T10:58:23.324Z,4.82
2023-10-18T11:00:39.679Z,4.93
2023-10-18T11:02:47.085Z,4.82
2023-10-18T11:04:59.179Z,4.93
2023-10-18T11:07:05.224Z,5.20
2023-10-18T11:09:09.671Z,4.60
2023-10-18T11:11:14.979Z,5.70
2023-10-18T11:13:23.992Z,5.53
2023-10-18T11:15:29.051Z,5.80
2023-10-18T11:17:31.163Z,5.18
2023-10-18T11:19:34.098Z,4.97
2023-10-18T11:21:39.359Z,4.80
2023-10-18T11:23:42.597Z,5.07
2023-10-18T11:25:46.883Z,5.20
2023-10-18T11:27:49.639Z,5.45
2023-10-18T11:29:57.055Z,4.18
2023-10-18T11:32:01.500Z,4.32
2023-10-18T11:34:07.626Z,4.00
2023-10-18T11:36:10.065Z,4.60
2023-10-18T11:38:13.864Z,4.72
2023-10-18T11:40:17.251Z,4.35
2023-10-18T11:42:20.424Z,4.80
2023-10-18T11:44:32.790Z,4.40
2023-10-18T11:46:48.691Z,3.97
2023-10-18T11:48:56.136Z,3.83
2023-10-18T11:51:00.415Z,4.13
2023-10-18T11:53:09.906Z,3.78
2023-10-18T11:55:12.649Z,3.92
2023-10-18T11:57:30.972Z,3.80
2023-10-18T11:59:52.537Z,3.72
2023-10-18T12:01:55.870Z,3.78
2023-10-18T12:04:00.317Z,3.63
2023-10-18T12:06:04.508Z,3.17
2023-10-18T12:08:13.586Z,3.25
2023-10-18T12:10:18.185Z,3.63
2023-10-18T12:12:21.468Z,3.47
2023-10-18T12:14:23.948Z,3.22
2023-10-18T12:16:26.934Z,3.85
2023-10-18T12:18:30.310Z,4.13
2023-10-18T12:20:38.003Z,4.50
2023-10-18T12:22:43.786Z,3.55
2023-10-18T12:24:45.863Z,3.65
2023-10-18T12:26:54.859Z,3.40
2023-10-18T12:28:58.170Z,3.58
2023-10-18T12:31:02.584Z,4.50
2023-10-18T12:33:07.463Z,3.45
2023-10-18T12:35:14.473Z,3.60
2023-10-18T12:37:19.669Z,3.28
2023-10-18T12:39:23.220Z,3.78
2023-10-18T12:41:32.838Z,3.70
2023-10-18T12:43:40.729Z,3.60
2023-10-18T12:45:44.309Z,3.10
2023-10-18T12:47:48.920Z,3.83
2023-10-18T12:49:52.839Z,3.58
2023-10-18T12:52:02.133Z,3.33
2023-10-18T12:54:07.045Z,3.35
2023-10-18T12:56:27.405Z,3.38
2023-10-18T12:58:31.863Z,3.67
2023-10-18T13:00:43.980Z,3.30
2023-10-18T13:02:52.340Z,3.65
2023-10-18T13:05:01.070Z,3.80
2023-10-18T13:07:20.539Z,3.55
2023-10-18T13:09:24.210Z,3.65
2023-10-18T13:11:44.406Z,3.33
2023-10-18T13:13:48.022Z,3.50
2023-10-18T13:15:49.998Z,3.95
2023-10-18T13:17:53.325Z,4.07
2023-10-18T13:19:58.584Z,3.75
2023-10-18T13:22:05.643Z,5.93
2023-10-18T13:24:18.979Z,4.10
2023-10-18T13:26:28.275Z,4.25
2023-10-18T13:28:35.548Z,3.97
2023-10-18T13:30:44.482Z,3.88
2023-10-18T13:32:47.416Z,4.13
2023-10-18T13:34:50.219Z,4.32
2023-10-18T13:36:54.216Z,4.13
2023-10-18T13:38:57.002Z,3.53
2023-10-18T13:41:01.751Z,4.10
2023-10-18T13:43:06.332Z,3.97
2023-10-18T13:45:11.858Z,4.57
2023-10-18T13:47:14.802Z,3.65
2023-10-18T13:49:18.365Z,3.80
2023-10-18T13:51:22.255Z,4.20
2023-10-18T13:53:25.088Z,4.47
2023-10-18T13:55:27.867Z,4.50
2023-10-18T13:57:31.961Z,4.63
2023-10-18T13:59:39.326Z,5.10
2023-10-18T14:01:43.703Z,4.93
2023-10-18T14:03:48.920Z,4.82
2023-10-18T14:05:51.889Z,5.22
2023-10-18T14:07:54.631Z,4.60
2023-10-18T14:09:57.358Z,5.05
2023-10-18T14:12:02.266Z,5.85
2023-10-18T14:14:05.057Z,5.30
2023-10-18T14:16:13.408Z,6.03
2023-10-18T14:18:16.819Z,5.68
2023-10-18T14:20:26.092Z,5.75
2023-10-18T14:22:28.862Z,5.50
2023-10-18T14:24:33.033Z,6.07
2023-10-18T14:26:37.955Z,6.35
2023-10-18T14:28:42.019Z,6.20
2023-10-18T14:30:47.968Z,6.57
2023-10-18T14:32:52.276Z,6.10
2023-10-18T14:34:55.315Z,5.95
2023-10-18T14:36:58.163Z,6.28
2023-10-18T14:39:00.067Z,6.88
2023-10-18T14:41:09.210Z,6.43
2023-10-18T14:43:17.135Z,6.00
2023-10-18T14:45:18.795Z,5.72
2023-10-18T14:47:21.585Z,6.30
2023-10-18T14:49:25.806Z,5.32
2023-10-18T14:51:28.650Z,6.72
2023-10-18T14:53:32.388Z,5.32
2023-10-18T14:55:38.808Z,6.28
2023-10-18T14:57:42.045Z,6.05
2023-10-18T14:59:44.856Z,6.10
2023-10-18T15:01:47.607Z,6.32
2023-10-18T15:03:51.518Z,6.60
2023-10-18T15:05:55.899Z,6.55
2023-10-18T15:07:59.342Z,6.93
2023-10-18T15:10:03.257Z,6.93
2023-10-18T15:12:07.557Z,6.55
2023-10-18T15:14:12.882Z,7.25
2023-10-18T15:16:16.812Z,6.70
2023-10-18T15:18:19.572Z,7.35
2023-10-18T15:20:23.304Z,7.53
2023-10-18T15:22:27.644Z,6.78
2023-10-18T15:24:30.694Z,7.90
2023-10-18T15:26:39.253Z,7.45
2023-10-18T15:28:42.033Z,7.75
2023-10-18T15:30:44.823Z,7.93
2023-10-18T15:32:47.660Z,7.70
2023-10-18T15:34:51.292Z,7.75
2023-10-18T15:36:55.278Z,7.85
2023-10-18T15:39:00.461Z,8.52
2023-10-18T15:41:06.625Z,8.48
2023-10-18T15:43:10.878Z,8.90
2023-10-18T15:45:13.748Z,21.40
2023-10-18T15:47:16.460Z,11.90
2023-10-18T15:49:19.385Z,33.45
2023-10-18T15:51:23.157Z,10.02
2023-10-18T15:53:30.270Z,8.27
2023-10-18T15:55:37.017Z,8.18
2023-10-18T15:57:39.764Z,8.38
2023-10-18T15:59:42.511Z,7.07
2023-10-18T16:01:57.951Z,7.47
2023-10-18T16:04:03.127Z,7.82
2023-10-18T16:06:06.357Z,8.70
2023-10-18T16:08:09.279Z,8.45
2023-10-18T16:10:13.990Z,9.07
2023-10-18T16:12:18.445Z,8.77
2023-10-18T16:14:20.221Z,8.98
2023-10-18T16:16:25.719Z,9.15
2023-10-18T16:18:29.762Z,9.88
2023-10-18T16:20:32.637Z,9.00
2023-10-18T16:22:35.454Z,9.77
2023-10-18T16:24:39.941Z,8.10
2023-10-18T16:26:42.722Z,9.07
2023-10-18T16:28:47.503Z,9.23
2023-10-18T16:30:50.310Z,10.10
2023-10-18T16:32:56.109Z,9.75
2023-10-18T16:34:59.026Z,8.60
2023-10-18T16:37:03.515Z,8.95
2023-10-18T16:39:06.615Z,8.68
2023-10-18T16:41:09.650Z,8.85
2023-10-18T16:43:12.679Z,9.32
2023-10-18T16:45:17.830Z,9.35
2023-10-18T16:47:22.442Z,8.95
2023-10-18T16:49:25.316Z,10.02
2023-10-18T16:51:27.078Z,9.65
2023-10-18T16:53:29.921Z,9.35
2023-10-18T16:55:35.229Z,9.40
2023-10-18T16:57:37.100Z,9.57
2023-10-18T16:59:39.964Z,10.48
2023-10-18T17:01:44.484Z,10.85
2023-10-18T17:03:49.099Z,10.75
2023-10-18T17:05:56.340Z,11.27
2023-10-18T17:08:00.217Z,10.10
2023-10-18T17:10:02.999Z,10.75
2023-10-18T17:12:07.130Z,10.90
2023-10-18T17:14:16.004Z,11.48
2023-10-18T17:16:19.132Z,11.30
2023-10-18T17:18:23.816Z,9.23
2023-10-18T17:20:27.942Z,11.20
2023-10-18T17:22:32.200Z,13.50
2023-10-18T17:24:34.927Z,11.55
2023-10-18T17:26:38.727Z,13.25
2023-10-18T17:28:41.471Z,14.20
2023-10-18T17:30:44.267Z,12.90
2023-10-18T17:32:47.219Z,13.07
2023-10-18T17:34:51.470Z,12.98
2023-10-18T17:36:54.477Z,12.65
2023-10-18T17:38:57.288Z,12.52
2023-10-18T17:41:00.839Z,12.88
2023-10-18T17:43:05.466Z,12.98
2023-10-18T17:45:11.171Z,14.10
2023-10-18T17:47:15.194Z,11.88
2023-10-18T17:49:19.456Z,12.48
2023-10-18T17:51:23.939Z,13.43
2023-10-18T17:53:25.617Z,14.25
2023-10-18T17:55:28.532Z,15.45
2023-10-18T17:57:35.390Z,14.68
2023-10-18T17:59:41.076Z,14.55
2023-10-18T18:01:43.923Z,14.13
2023-10-18T18:03:46.873Z,13.52
2023-10-18T18:05:50.465Z,12.85
2023-10-18T18:07:55.621Z,13.30
2023-10-18T18:09:58.591Z,12.57
2023-10-18T18:12:01.299Z,14.20
2023-10-18T18:14:07.234Z,12.25
2023-10-18T18:16:10.359Z,12.02
2023-10-18T18:18:14.069Z,13.23
2023-10-18T18:20:20.473Z,14.45
2023-10-18T18:22:24.640Z,13.15
2023-10-18T18:24:28.706Z,13.65
2023-10-18T18:26:31.438Z,15.35
2023-10-18T18:28:34.280Z,15.27
2023-10-18T18:30:36.969Z,14.60
2023-10-18T18:32:40.562Z,15.10
2023-10-18T18:34:45.285Z,16.65
2023-10-18T18:36:48.048Z,16.17
2023-10-18T18:38:50.780Z,16.65
2023-10-18T18:40:55.124Z,16.50
2023-10-18T18:42:58.074Z,17.17
2023-10-18T18:45:00.937Z,15.35
2023-10-18T18:47:03.824Z,15.18
2023-10-18T18:49:07.764Z,15.65
2023-10-18T18:51:12.264Z,15.98
2023-10-18T18:53:15.091Z,17.85
2023-10-18T18:55:18.452Z,16.92
2023-10-18T18:57:22.461Z,17.27
2023-10-18T18:59:25.199Z,15.23
2023-10-18T19:01:28.000Z,16.08
2023-10-18T19:03:31.069Z,15.95
2023-10-18T19:05:34.577Z,14.45
2023-10-18T19:07:37.379Z,14.90
2023-10-18T19:09:40.605Z,15.10
2023-10-18T19:11:43.685Z,15.23
2023-10-18T19:13:47.875Z,16.38
2023-10-18T19:15:50.573Z,14.95
2023-10-18T19:17:53.398Z,14.13
2023-10-18T19:19:56.174Z,12.90
2023-10-18T19:21:59.617Z,13.68
2023-10-18T19:24:02.527Z,14.55
2023-10-18T19:26:09.515Z,14.70
2023-10-18T19:28:12.239Z,15.70
2023-10-18T19:30:17.680Z,15.38
2023-10-18T19:32:20.414Z,15.52
2023-10-18T19:34:24.150Z,15.27
2023-10-18T19:36:26.881Z,16.40
2023-10-18T19:38:29.587Z,17.50
2023-10-18T19:40:32.709Z,16.05
2023-10-18T19:42:35.687Z,16.85
2023-10-18T19:44:38.435Z,17.60
2023-10-18T19:46:42.541Z,17.40
2023-10-18T19:48:45.319Z,17.48
2023-10-18T19:50:48.338Z,17.05
2023-10-18T19:52:54.152Z,18.95
2023-10-18T19:54:57.965Z,16.85
2023-10-18T19:57:01.800Z,16.83
2023-10-18T19:59:04.938Z,16.70
2023-10-18T20:01:08.242Z,18.88
2023-10-18T20:03:14.817Z,18.95
2023-10-18T20:05:17.757Z,18.02
2023-10-18T20:07:20.516Z,17.77
2023-10-18T20:09:23.214Z,18.98
2023-10-18T20:11:26.035Z,20.75
2023-10-18T20:13:32.203Z,17.88
2023-10-18T20:15:35.900Z,19.25
2023-10-18T20:17:38.798Z,18.13
2023-10-18T20:19:42.974Z,20.48
2023-10-18T20:21:46.204Z,23.92
2023-10-18T20:23:48.974Z,21.67
2023-10-18T20:25:58.522Z,18.38
2023-10-18T20:28:01.301Z,16.60
2023-10-18T20:30:07.131Z,16.17
2023-10-18T20:32:09.925Z,21.05
2023-10-18T20:34:12.730Z,19.90
2023-10-18T20:36:17.102Z,19.02
2023-10-18T20:38:19.853Z,19.88
2023-10-18T20:40:22.768Z,16.95
2023-10-18T20:42:25.882Z,16.67
2023-10-18T20:44:28.767Z,15.63
2023-10-18T20:46:33.354Z,16.40
2023-10-18T20:48:36.024Z,17.27
2023-10-18T20:50:41.169Z,17.05
2023-10-18T20:52:46.954Z,15.32
2023-10-18T20:54:50.014Z,16.75
2023-10-18T20:57:11.040Z,15.52
2023-10-18T20:59:16.094Z,17.90
2023-10-18T21:01:22.978Z,15.20
2023-10-18T21:03:26.353Z,15.20
2023-10-18T21:05:30.285Z,12.63
2023-10-18T21:07:33.031Z,16.38
2023-10-18T21:09:37.043Z,16.30
2023-10-18T21:11:39.752Z,14.75
2023-10-18T21:13:43.295Z,17.10
2023-10-18T21:15:45.945Z,13.25
2023-10-18T21:17:49.359Z,14.95
2023-10-18T21:19:52.102Z,15.15
2023-10-18T21:21:54.883Z,14.35
2023-10-18T21:23:57.743Z,15.32
2023-10-18T21:26:02.463Z,15.43
2023-10-18T21:28:06.444Z,16.02
2023-10-18T21:30:11.910Z,15.02
2023-10-18T21:32:14.800Z,14.63
2023-10-18T21:34:17.714Z,14.73
2023-10-18T21:36:20.846Z,13.98
2023-10-18T21:38:22.758Z,14.52
2023-10-18T21:40:25.788Z,14.40
2023-10-18T21:42:30.120Z,14.10
2023-10-18T21:44:33.083Z,15.50
2023-10-18T21:46:36.473Z,14.70
2023-10-18T21:48:40.026Z,15.23
2023-10-18T21:50:41.766Z,13.13
2023-10-18T21:52:44.532Z,15.30
2023-10-18T21:54:46.311Z,14.20
2023-10-18T21:56:49.006Z,14.73
2023-10-18T21:58:53.084Z,15.57
2023-10-18T22:00:56.887Z,14.77
2023-10-18T22:03:02.504Z,13.68
2023-10-18T22:05:05.924Z,13.93
2023-10-18T22:07:07.721Z,13.82
2023-10-18T22:09:25.401Z,14.02
2023-10-18T22:11:31.546Z,13.82
2023-10-18T22:13:34.798Z,16.00
2023-10-18T22:15:47.988Z,13.95
2023-10-18T22:17:52.090Z,13.52
2023-10-18T22:19:58.809Z,15.35
2023-10-18T22:22:12.504Z,13.70
2023-10-18T22:24:21.133Z,14.63
2023-10-18T22:26:29.242Z,13.85
2023-10-18T22:28:31.954Z,14.50
2023-10-18T22:30:38.109Z,15.10
2023-10-18T22:32:42.454Z,13.65
2023-10-18T22:34:47.390Z,15.45
2023-10-18T22:36:50.299Z,15.30
2023-10-18T22:38:53.358Z,15.18
2023-10-18T22:41:11.732Z,15.77
2023-10-18T22:43:14.606Z,16.73
2023-10-18T22:45:27.793Z,15.07
2023-10-18T22:47:38.017Z,14.40
2023-10-18T22:49:43.151Z,16.30
2023-10-18T22:51:48.379Z,15.45
2023-10-18T22:53:53.326Z,15.85
2023-10-18T22:55:58.460Z,14.85
2023-10-18T22:58:01.259Z,14.50
2023-10-18T23:00:09.222Z,14.88
2023-10-18T23:02:12.088Z,16.00
2023-10-18T23:04:15.921Z,14.10
2023-10-18T23:06:22.216Z,14.80
2023-10-18T23:08:27.855Z,16.10
2023-10-18T23:10:50.178Z,15.30
2023-10-18T23:12:55.552Z,15.65
2023-10-18T23:15:03.774Z,15.52
2023-10-18T23:17:11.043Z,15.68
2023-10-18T23:19:32.678Z,15.40
2023-10-18T23:21:42.593Z,15.10
2023-10-18T23:23:55.629Z,15.68
2023-10-18T23:26:19.215Z,16.08
2023-10-18T23:28:31.594Z,15.77
2023-10-18T23:30:40.024Z,15.70
2023-10-18T23:32:53.640Z,15.20
2023-10-18T23:34:56.680Z,14.10
2023-10-18T23:37:13.214Z,14.77
2023-10-18T23:39:16.152Z,12.82
2023-10-18T23:41:29.891Z,12.38
2023-10-18T23:43:49.240Z,15.07
2023-10-18T23:45:58.021Z,13.52
2023-10-18T23:48:28.767Z,15.43
2023-10-18T23:50:35.201Z,15.80
2023-10-18T23:52:49.900Z,15.05
2023-10-18T23:54:56.297Z,16.60
2023-10-18T23:57:01.631Z,15.13
2023-10-18T23:59:07.376Z,15.70
